sensor_id;sensor_type;location;lat;lon;timestamp;P1;durP1;ratioP1;P2;durP2;ratioP2
67751;SDS011;54551;51.068;5.826;2023-05-16T00:00:21;6.70;;;2.47;;
67751;SDS011;54551;51.068;5.826;2023-05-16T00:02:47;8.37;;;2.43;;
67751;SDS011;54551;51.068;5.826;2023-05-16T00:05:13;9.47;;;2.30;;
67751;SDS011;54551;51.068;5.826;2023-05-16T00:07:41;7.63;;;2.40;;
67751;SDS011;54551;51.068;5.826;2023-05-16T00:10:08;8.57;;;2.57;;
67751;SDS011;54551;51.068;5.826;2023-05-16T00:12:34;6.40;;;2.53;;
67751;SDS011;54551;51.068;5.826;2023-05-16T00:15:02;6.93;;;2.53;;
67751;SDS011;54551;51.068;5.826;2023-05-16T00:17:29;10.90;;;3.23;;
67751;SDS011;54551;51.068;5.826;2023-05-16T00:19:56;6.40;;;2.20;;
67751;SDS011;54551;51.068;5.826;2023-05-16T00:22:23;7.87;;;2.80;;
67751;SDS011;54551;51.068;5.826;2023-05-16T00:24:49;4.27;;;2.33;;
67751;SDS011;54551;51.068;5.826;2023-05-16T00:27:15;7.23;;;2.60;;
67751;SDS011;54551;51.068;5.826;2023-05-16T00:29:41;9.63;;;2.77;;
67751;SDS011;54551;51.068;5.826;2023-05-16T00:32:07;6.87;;;2.27;;
67751;SDS011;54551;51.068;5.826;2023-05-16T00:34:33;8.53;;;2.63;;
67751;SDS011;54551;51.068;5.826;2023-05-16T00:37:00;5.87;;;2.50;;
67751;SDS011;54551;51.068;5.826;2023-05-16T00:39:26;7.33;;;2.50;;
67751;SDS011;54551;51.068;5.826;2023-05-16T00:41:54;8.50;;;2.77;;
67751;SDS011;54551;51.068;5.826;2023-05-16T00:44:21;10.93;;;3.57;;
67751;SDS011;54551;51.068;5.826;2023-05-16T00:46:47;10.57;;;3.07;;
67751;SDS011;54551;51.068;5.826;2023-05-16T00:49:14;10.97;;;2.93;;
67751;SDS011;54551;51.068;5.826;2023-05-16T00:51:40;10.67;;;3.07;;
67751;SDS011;54551;51.068;5.826;2023-05-16T00:54:06;11.70;;;3.07;;
67751;SDS011;54551;51.068;5.826;2023-05-16T00:56:32;8.80;;;3.03;;
67751;SDS011;54551;51.068;5.826;2023-05-16T00:58:58;13.23;;;3.10;;
67751;SDS011;54551;51.068;5.826;2023-05-16T01:01:26;9.80;;;3.40;;
67751;SDS011;54551;51.068;5.826;2023-05-16T01:03:53;14.90;;;3.47;;
67751;SDS011;54551;51.068;5.826;2023-05-16T01:06:19;10.47;;;3.60;;
67751;SDS011;54551;51.068;5.826;2023-05-16T01:08:45;6.83;;;2.53;;
67751;SDS011;54551;51.068;5.826;2023-05-16T01:11:15;12.03;;;3.30;;
67751;SDS011;54551;51.068;5.826;2023-05-16T01:16:26;6.50;;;2.93;;
67751;SDS011;54551;51.068;5.826;2023-05-16T01:19:06;10.23;;;3.07;;
67751;SDS011;54551;51.068;5.826;2023-05-16T01:21:47;8.40;;;2.83;;
67751;SDS011;54551;51.068;5.826;2023-05-16T01:24:21;9.50;;;2.67;;
67751;SDS011;54551;51.068;5.826;2023-05-16T01:26:54;10.30;;;3.33;;
67751;SDS011;54551;51.068;5.826;2023-05-16T01:29:21;10.73;;;2.90;;
67751;SDS011;54551;51.068;5.826;2023-05-16T01:31:47;10.10;;;3.33;;
67751;SDS011;54551;51.068;5.826;2023-05-16T01:34:13;10.70;;;3.37;;
67751;SDS011;54551;51.068;5.826;2023-05-16T01:42:20;9.00;;;2.63;;
67751;SDS011;54551;51.068;5.826;2023-05-16T01:47:35;9.07;;;2.90;;
67751;SDS011;54551;51.068;5.826;2023-05-16T01:50:09;11.03;;;3.60;;
67751;SDS011;54551;51.068;5.826;2023-05-16T01:55:50;7.87;;;3.17;;
67751;SDS011;54551;51.068;5.826;2023-05-16T01:58:18;8.20;;;3.33;;
67751;SDS011;54551;51.068;5.826;2023-05-16T02:00:46;13.83;;;4.27;;
67751;SDS011;54551;51.068;5.826;2023-05-16T02:03:12;9.53;;;3.60;;
67751;SDS011;54551;51.068;5.826;2023-05-16T02:05:38;13.07;;;3.80;;
67751;SDS011;54551;51.068;5.826;2023-05-16T02:08:04;13.97;;;4.07;;
67751;SDS011;54551;51.068;5.826;2023-05-16T02:10:30;9.27;;;3.37;;
67751;SDS011;54551;51.068;5.826;2023-05-16T02:12:58;12.20;;;3.07;;
67751;SDS011;54551;51.068;5.826;2023-05-16T02:15:24;10.77;;;3.23;;
67751;SDS011;54551;51.068;5.826;2023-05-16T02:17:50;10.43;;;3.17;;
67751;SDS011;54551;51.068;5.826;2023-05-16T02:20:16;12.77;;;4.00;;
67751;SDS011;54551;51.068;5.826;2023-05-16T02:22:42;13.73;;;3.87;;
67751;SDS011;54551;51.068;5.826;2023-05-16T02:25:08;10.00;;;3.60;;
67751;SDS011;54551;51.068;5.826;2023-05-16T02:27:34;12.83;;;3.33;;
67751;SDS011;54551;51.068;5.826;2023-05-16T02:30:00;8.80;;;2.97;;
67751;SDS011;54551;51.068;5.826;2023-05-16T02:32:26;11.13;;;3.23;;
67751;SDS011;54551;51.068;5.826;2023-05-16T02:34:52;13.27;;;3.33;;
67751;SDS011;54551;51.068;5.826;2023-05-16T02:37:18;10.87;;;3.63;;
67751;SDS011;54551;51.068;5.826;2023-05-16T02:39:44;15.93;;;4.03;;
67751;SDS011;54551;51.068;5.826;2023-05-16T02:42:10;13.53;;;4.13;;
67751;SDS011;54551;51.068;5.826;2023-05-16T02:44:37;15.47;;;4.40;;
67751;SDS011;54551;51.068;5.826;2023-05-16T02:47:03;17.27;;;4.47;;
67751;SDS011;54551;51.068;5.826;2023-05-16T02:49:29;13.20;;;3.87;;
67751;SDS011;54551;51.068;5.826;2023-05-16T02:51:55;13.63;;;3.60;;
67751;SDS011;54551;51.068;5.826;2023-05-16T02:54:21;10.37;;;3.20;;
67751;SDS011;54551;51.068;5.826;2023-05-16T02:56:47;11.37;;;3.23;;
67751;SDS011;54551;51.068;5.826;2023-05-16T02:59:13;14.00;;;4.03;;
67751;SDS011;54551;51.068;5.826;2023-05-16T03:01:39;15.70;;;3.60;;
67751;SDS011;54551;51.068;5.826;2023-05-16T03:04:05;15.83;;;3.23;;
67751;SDS011;54551;51.068;5.826;2023-05-16T03:06:31;10.77;;;3.10;;
67751;SDS011;54551;51.068;5.826;2023-05-16T03:08:58;11.60;;;2.87;;
67751;SDS011;54551;51.068;5.826;2023-05-16T03:11:25;16.00;;;3.30;;
67751;SDS011;54551;51.068;5.826;2023-05-16T03:13:53;14.57;;;3.63;;
67751;SDS011;54551;51.068;5.826;2023-05-16T03:16:19;15.47;;;4.00;;
67751;SDS011;54551;51.068;5.826;2023-05-16T03:18:45;18.17;;;4.30;;
67751;SDS011;54551;51.068;5.826;2023-05-16T03:21:11;14.30;;;3.37;;
67751;SDS011;54551;51.068;5.826;2023-05-16T03:23:37;14.57;;;3.60;;
67751;SDS011;54551;51.068;5.826;2023-05-16T03:26:03;14.60;;;3.77;;
67751;SDS011;54551;51.068;5.826;2023-05-16T03:28:29;14.37;;;3.63;;
67751;SDS011;54551;51.068;5.826;2023-05-16T03:30:55;14.83;;;3.87;;
67751;SDS011;54551;51.068;5.826;2023-05-16T03:33:21;9.27;;;2.83;;
67751;SDS011;54551;51.068;5.826;2023-05-16T03:35:48;9.93;;;3.63;;
67751;SDS011;54551;51.068;5.826;2023-05-16T03:38:15;11.43;;;2.97;;
67751;SDS011;54551;51.068;5.826;2023-05-16T03:40:42;16.13;;;3.67;;
67751;SDS011;54551;51.068;5.826;2023-05-16T03:43:09;11.70;;;3.53;;
67751;SDS011;54551;51.068;5.826;2023-05-16T03:45:35;14.67;;;3.87;;
67751;SDS011;54551;51.068;5.826;2023-05-16T03:48:00;15.80;;;3.50;;
67751;SDS011;54551;51.068;5.826;2023-05-16T03:50:27;12.83;;;4.00;;
67751;SDS011;54551;51.068;5.826;2023-05-16T03:52:52;11.17;;;3.43;;
67751;SDS011;54551;51.068;5.826;2023-05-16T03:55:19;14.27;;;3.43;;
67751;SDS011;54551;51.068;5.826;2023-05-16T03:57:45;14.43;;;3.40;;
67751;SDS011;54551;51.068;5.826;2023-05-16T04:00:12;12.57;;;3.63;;
67751;SDS011;54551;51.068;5.826;2023-05-16T04:02:38;13.47;;;3.67;;
67751;SDS011;54551;51.068;5.826;2023-05-16T04:05:06;13.23;;;3.43;;
67751;SDS011;54551;51.068;5.826;2023-05-16T04:07:34;15.43;;;4.10;;
67751;SDS011;54551;51.068;5.826;2023-05-16T04:10:01;16.70;;;4.13;;
67751;SDS011;54551;51.068;5.826;2023-05-16T04:12:27;13.63;;;3.73;;
67751;SDS011;54551;51.068;5.826;2023-05-16T04:14:54;10.10;;;2.90;;
67751;SDS011;54551;51.068;5.826;2023-05-16T04:17:19;12.10;;;3.23;;
67751;SDS011;54551;51.068;5.826;2023-05-16T04:19:45;12.47;;;3.63;;
67751;SDS011;54551;51.068;5.826;2023-05-16T04:22:11;16.73;;;3.70;;
67751;SDS011;54551;51.068;5.826;2023-05-16T04:24:37;13.67;;;3.47;;
67751;SDS011;54551;51.068;5.826;2023-05-16T04:27:03;8.63;;;3.00;;
67751;SDS011;54551;51.068;5.826;2023-05-16T04:29:33;14.90;;;2.83;;
67751;SDS011;54551;51.068;5.826;2023-05-16T04:32:00;12.17;;;3.10;;
67751;SDS011;54551;51.068;5.826;2023-05-16T04:34:26;14.23;;;3.37;;
67751;SDS011;54551;51.068;5.826;2023-05-16T04:36:52;19.73;;;3.80;;
67751;SDS011;54551;51.068;5.826;2023-05-16T04:39:19;11.90;;;3.23;;
67751;SDS011;54551;51.068;5.826;2023-05-16T04:41:45;14.80;;;3.90;;
67751;SDS011;54551;51.068;5.826;2023-05-16T04:44:11;12.67;;;3.00;;
67751;SDS011;54551;51.068;5.826;2023-05-16T04:46:37;14.40;;;3.53;;
67751;SDS011;54551;51.068;5.826;2023-05-16T04:49:03;12.53;;;4.23;;
67751;SDS011;54551;51.068;5.826;2023-05-16T04:51:29;13.10;;;3.53;;
67751;SDS011;54551;51.068;5.826;2023-05-16T04:53:56;12.57;;;3.60;;
67751;SDS011;54551;51.068;5.826;2023-05-16T04:56:22;14.07;;;3.20;;
67751;SDS011;54551;51.068;5.826;2023-05-16T04:58:48;10.60;;;3.30;;
67751;SDS011;54551;51.068;5.826;2023-05-16T05:01:14;14.40;;;3.30;;
67751;SDS011;54551;51.068;5.826;2023-05-16T05:03:40;13.00;;;3.53;;
67751;SDS011;54551;51.068;5.826;2023-05-16T05:06:06;11.60;;;2.70;;
67751;SDS011;54551;51.068;5.826;2023-05-16T05:08:32;11.73;;;3.03;;
67751;SDS011;54551;51.068;5.826;2023-05-16T05:10:58;10.67;;;2.80;;
67751;SDS011;54551;51.068;5.826;2023-05-16T05:13:24;11.80;;;3.23;;
67751;SDS011;54551;51.068;5.826;2023-05-16T05:15:50;10.73;;;3.30;;
67751;SDS011;54551;51.068;5.826;2023-05-16T05:18:16;9.33;;;2.87;;
67751;SDS011;54551;51.068;5.826;2023-05-16T05:20:42;11.80;;;3.47;;
67751;SDS011;54551;51.068;5.826;2023-05-16T05:23:12;15.53;;;3.37;;
67751;SDS011;54551;51.068;5.826;2023-05-16T05:25:38;14.30;;;3.40;;
67751;SDS011;54551;51.068;5.826;2023-05-16T05:28:04;10.60;;;3.00;;
67751;SDS011;54551;51.068;5.826;2023-05-16T05:30:30;15.53;;;3.67;;
67751;SDS011;54551;51.068;5.826;2023-05-16T05:32:56;15.73;;;3.60;;
67751;SDS011;54551;51.068;5.826;2023-05-16T05:35:23;9.50;;;2.80;;
67751;SDS011;54551;51.068;5.826;2023-05-16T05:37:49;13.43;;;3.13;;
67751;SDS011;54551;51.068;5.826;2023-05-16T05:40:15;13.17;;;3.70;;
67751;SDS011;54551;51.068;5.826;2023-05-16T05:42:41;13.20;;;2.90;;
67751;SDS011;54551;51.068;5.826;2023-05-16T05:45:07;9.23;;;2.40;;
67751;SDS011;54551;51.068;5.826;2023-05-16T05:47:33;9.53;;;3.10;;
67751;SDS011;54551;51.068;5.826;2023-05-16T05:49:59;15.13;;;3.63;;
67751;SDS011;54551;51.068;5.826;2023-05-16T05:52:25;13.20;;;3.67;;
67751;SDS011;54551;51.068;5.826;2023-05-16T05:54:52;11.93;;;2.57;;
67751;SDS011;54551;51.068;5.826;2023-05-16T05:57:18;9.63;;;3.23;;
67751;SDS011;54551;51.068;5.826;2023-05-16T05:59:45;12.50;;;3.27;;
67751;SDS011;54551;51.068;5.826;2023-05-16T06:02:11;14.27;;;3.10;;
67751;SDS011;54551;51.068;5.826;2023-05-16T06:04:38;9.67;;;2.83;;
67751;SDS011;54551;51.068;5.826;2023-05-16T06:07:03;12.47;;;3.70;;
67751;SDS011;54551;51.068;5.826;2023-05-16T06:09:30;12.70;;;2.93;;
67751;SDS011;54551;51.068;5.826;2023-05-16T06:11:56;12.90;;;2.67;;
67751;SDS011;54551;51.068;5.826;2023-05-16T06:14:21;14.60;;;2.70;;
67751;SDS011;54551;51.068;5.826;2023-05-16T06:16:47;13.80;;;2.70;;
67751;SDS011;54551;51.068;5.826;2023-05-16T06:19:13;13.40;;;3.30;;
67751;SDS011;54551;51.068;5.826;2023-05-16T06:21:41;11.27;;;3.23;;
67751;SDS011;54551;51.068;5.826;2023-05-16T06:24:07;17.53;;;3.63;;
67751;SDS011;54551;51.068;5.826;2023-05-16T06:26:34;12.00;;;3.10;;
67751;SDS011;54551;51.068;5.826;2023-05-16T06:29:01;10.77;;;2.93;;
67751;SDS011;54551;51.068;5.826;2023-05-16T06:31:26;12.07;;;3.27;;
67751;SDS011;54551;51.068;5.826;2023-05-16T06:33:52;12.20;;;3.20;;
67751;SDS011;54551;51.068;5.826;2023-05-16T06:36:18;9.70;;;3.03;;
67751;SDS011;54551;51.068;5.826;2023-05-16T06:38:44;11.00;;;2.77;;
67751;SDS011;54551;51.068;5.826;2023-05-16T06:41:10;12.53;;;3.83;;
67751;SDS011;54551;51.068;5.826;2023-05-16T06:43:36;12.17;;;3.33;;
67751;SDS011;54551;51.068;5.826;2023-05-16T06:46:02;9.80;;;2.67;;
67751;SDS011;54551;51.068;5.826;2023-05-16T06:48:28;13.93;;;3.33;;
67751;SDS011;54551;51.068;5.826;2023-05-16T06:50:54;11.97;;;3.13;;
67751;SDS011;54551;51.068;5.826;2023-05-16T06:53:20;14.07;;;2.70;;
67751;SDS011;54551;51.068;5.826;2023-05-16T06:55:46;9.97;;;2.60;;
67751;SDS011;54551;51.068;5.826;2023-05-16T06:58:12;10.30;;;3.03;;
67751;SDS011;54551;51.068;5.826;2023-05-16T07:00:38;8.17;;;2.87;;
67751;SDS011;54551;51.068;5.826;2023-05-16T07:03:05;8.50;;;2.73;;
67751;SDS011;54551;51.068;5.826;2023-05-16T07:05:31;9.27;;;2.70;;
67751;SDS011;54551;51.068;5.826;2023-05-16T07:07:57;9.63;;;2.90;;
67751;SDS011;54551;51.068;5.826;2023-05-16T07:10:23;7.60;;;2.53;;
67751;SDS011;54551;51.068;5.826;2023-05-16T07:12:49;11.50;;;3.00;;
67751;SDS011;54551;51.068;5.826;2023-05-16T07:15:15;6.87;;;2.43;;
67751;SDS011;54551;51.068;5.826;2023-05-16T07:17:41;11.63;;;3.00;;
67751;SDS011;54551;51.068;5.826;2023-05-16T07:20:07;10.93;;;3.17;;
67751;SDS011;54551;51.068;5.826;2023-05-16T07:22:38;7.33;;;2.50;;
67751;SDS011;54551;51.068;5.826;2023-05-16T07:25:04;9.33;;;2.63;;
67751;SDS011;54551;51.068;5.826;2023-05-16T07:27:30;7.43;;;2.50;;
67751;SDS011;54551;51.068;5.826;2023-05-16T07:29:56;7.50;;;2.37;;
67751;SDS011;54551;51.068;5.826;2023-05-16T07:32:22;11.17;;;2.50;;
67751;SDS011;54551;51.068;5.826;2023-05-16T07:34:48;7.57;;;2.53;;
67751;SDS011;54551;51.068;5.826;2023-05-16T07:37:14;8.20;;;2.40;;
67751;SDS011;54551;51.068;5.826;2023-05-16T07:39:40;7.90;;;2.57;;
67751;SDS011;54551;51.068;5.826;2023-05-16T07:42:07;5.70;;;1.87;;
67751;SDS011;54551;51.068;5.826;2023-05-16T07:44:33;7.93;;;2.13;;
67751;SDS011;54551;51.068;5.826;2023-05-16T07:47:00;9.70;;;2.37;;
67751;SDS011;54551;51.068;5.826;2023-05-16T07:49:26;9.07;;;2.40;;
67751;SDS011;54551;51.068;5.826;2023-05-16T07:51:52;9.03;;;2.43;;
67751;SDS011;54551;51.068;5.826;2023-05-16T07:54:18;5.83;;;2.00;;
67751;SDS011;54551;51.068;5.826;2023-05-16T07:56:44;5.57;;;1.67;;
67751;SDS011;54551;51.068;5.826;2023-05-16T07:59:10;7.10;;;2.00;;
67751;SDS011;54551;51.068;5.826;2023-05-16T08:01:36;8.80;;;2.57;;
67751;SDS011;54551;51.068;5.826;2023-05-16T08:04:02;8.40;;;2.47;;
67751;SDS011;54551;51.068;5.826;2023-05-16T08:06:28;8.90;;;2.33;;
67751;SDS011;54551;51.068;5.826;2023-05-16T08:08:54;8.60;;;2.17;;
67751;SDS011;54551;51.068;5.826;2023-05-16T08:11:20;5.57;;;2.03;;
67751;SDS011;54551;51.068;5.826;2023-05-16T08:13:47;5.40;;;1.70;;
67751;SDS011;54551;51.068;5.826;2023-05-16T08:16:13;7.80;;;2.40;;
67751;SDS011;54551;51.068;5.826;2023-05-16T08:18:39;8.83;;;2.57;;
67751;SDS011;54551;51.068;5.826;2023-05-16T08:21:06;5.90;;;2.07;;
67751;SDS011;54551;51.068;5.826;2023-05-16T08:23:33;6.20;;;2.43;;
67751;SDS011;54551;51.068;5.826;2023-05-16T08:26:00;5.93;;;2.00;;
67751;SDS011;54551;51.068;5.826;2023-05-16T08:28:27;5.87;;;1.97;;
67751;SDS011;54551;51.068;5.826;2023-05-16T08:30:53;7.20;;;2.23;;
67751;SDS011;54551;51.068;5.826;2023-05-16T08:33:19;4.37;;;1.50;;
67751;SDS011;54551;51.068;5.826;2023-05-16T08:35:45;7.60;;;2.00;;
67751;SDS011;54551;51.068;5.826;2023-05-16T08:38:13;5.97;;;1.70;;
67751;SDS011;54551;51.068;5.826;2023-05-16T08:40:39;6.97;;;2.07;;
67751;SDS011;54551;51.068;5.826;2023-05-16T08:43:05;5.87;;;2.10;;
67751;SDS011;54551;51.068;5.826;2023-05-16T08:45:31;6.07;;;2.00;;
67751;SDS011;54551;51.068;5.826;2023-05-16T08:47:59;5.43;;;1.90;;
67751;SDS011;54551;51.068;5.826;2023-05-16T08:50:28;3.73;;;1.60;;
67751;SDS011;54551;51.068;5.826;2023-05-16T08:52:56;5.63;;;1.90;;
67751;SDS011;54551;51.068;5.826;2023-05-16T08:55:22;4.33;;;1.80;;
67751;SDS011;54551;51.068;5.826;2023-05-16T08:57:51;5.73;;;1.87;;
67751;SDS011;54551;51.068;5.826;2023-05-16T09:00:18;6.83;;;1.90;;
67751;SDS011;54551;51.068;5.826;2023-05-16T09:02:46;5.40;;;1.87;;
67751;SDS011;54551;51.068;5.826;2023-05-16T09:05:13;7.87;;;2.47;;
67751;SDS011;54551;51.068;5.826;2023-05-16T09:07:40;5.47;;;1.70;;
67751;SDS011;54551;51.068;5.826;2023-05-16T09:10:07;6.83;;;2.13;;
67751;SDS011;54551;51.068;5.826;2023-05-16T09:12:34;8.30;;;1.77;;
67751;SDS011;54551;51.068;5.826;2023-05-16T09:15:04;8.90;;;2.20;;
67751;SDS011;54551;51.068;5.826;2023-05-16T09:17:35;9.03;;;1.90;;
67751;SDS011;54551;51.068;5.826;2023-05-16T09:20:11;5.20;;;1.70;;
67751;SDS011;54551;51.068;5.826;2023-05-16T09:22:39;6.73;;;1.93;;
67751;SDS011;54551;51.068;5.826;2023-05-16T09:25:15;6.67;;;2.37;;
67751;SDS011;54551;51.068;5.826;2023-05-16T09:27:42;5.13;;;1.80;;
67751;SDS011;54551;51.068;5.826;2023-05-16T09:30:08;8.73;;;2.27;;
67751;SDS011;54551;51.068;5.826;2023-05-16T09:32:34;3.83;;;1.60;;
67751;SDS011;54551;51.068;5.826;2023-05-16T09:35:00;5.20;;;1.73;;
67751;SDS011;54551;51.068;5.826;2023-05-16T09:37:26;7.93;;;2.17;;
67751;SDS011;54551;51.068;5.826;2023-05-16T09:39:52;4.87;;;1.77;;
67751;SDS011;54551;51.068;5.826;2023-05-16T09:42:22;5.97;;;2.03;;
67751;SDS011;54551;51.068;5.826;2023-05-16T09:44:50;3.87;;;1.40;;
67751;SDS011;54551;51.068;5.826;2023-05-16T09:47:19;6.33;;;2.10;;
67751;SDS011;54551;51.068;5.826;2023-05-16T09:49:46;4.93;;;1.50;;
67751;SDS011;54551;51.068;5.826;2023-05-16T09:52:16;5.60;;;2.10;;
67751;SDS011;54551;51.068;5.826;2023-05-16T09:54:44;4.50;;;1.33;;
67751;SDS011;54551;51.068;5.826;2023-05-16T09:57:17;4.37;;;1.50;;
67751;SDS011;54551;51.068;5.826;2023-05-16T09:59:47;6.67;;;1.80;;
67751;SDS011;54551;51.068;5.826;2023-05-16T10:02:14;5.80;;;1.50;;
67751;SDS011;54551;51.068;5.826;2023-05-16T10:04:41;4.37;;;1.40;;
67751;SDS011;54551;51.068;5.826;2023-05-16T10:07:07;5.23;;;1.20;;
67751;SDS011;54551;51.068;5.826;2023-05-16T10:09:34;2.97;;;1.43;;
67751;SDS011;54551;51.068;5.826;2023-05-16T10:12:01;3.50;;;1.73;;
67751;SDS011;54551;51.068;5.826;2023-05-16T10:14:34;3.33;;;1.50;;
67751;SDS011;54551;51.068;5.826;2023-05-16T10:17:05;4.73;;;1.37;;
67751;SDS011;54551;51.068;5.826;2023-05-16T10:19:34;4.50;;;1.47;;
67751;SDS011;54551;51.068;5.826;2023-05-16T10:22:03;4.00;;;1.50;;
67751;SDS011;54551;51.068;5.826;2023-05-16T10:24:31;6.20;;;2.10;;
67751;SDS011;54551;51.068;5.826;2023-05-16T10:27:08;4.63;;;1.77;;
67751;SDS011;54551;51.068;5.826;2023-05-16T10:29:36;8.10;;;1.50;;
67751;SDS011;54551;51.068;5.826;2023-05-16T10:32:03;4.03;;;1.67;;
67751;SDS011;54551;51.068;5.826;2023-05-16T10:34:31;5.83;;;1.70;;
67751;SDS011;54551;51.068;5.826;2023-05-16T10:36:57;3.83;;;1.40;;
67751;SDS011;54551;51.068;5.826;2023-05-16T10:39:24;3.27;;;1.37;;
67751;SDS011;54551;51.068;5.826;2023-05-16T10:41:50;6.33;;;1.80;;
67751;SDS011;54551;51.068;5.826;2023-05-16T10:44:16;6.80;;;1.90;;
67751;SDS011;54551;51.068;5.826;2023-05-16T10:46:43;3.70;;;1.50;;
67751;SDS011;54551;51.068;5.826;2023-05-16T10:49:24;5.20;;;1.93;;
67751;SDS011;54551;51.068;5.826;2023-05-16T10:52:01;3.63;;;1.40;;
67751;SDS011;54551;51.068;5.826;2023-05-16T10:54:41;3.23;;;1.83;;
67751;SDS011;54551;51.068;5.826;2023-05-16T10:57:10;6.80;;;1.95;;
67751;SDS011;54551;51.068;5.826;2023-05-16T10:59:42;6.05;;;2.00;;
67751;SDS011;54551;51.068;5.826;2023-05-16T11:02:28;4.43;;;1.70;;
67751;SDS011;54551;51.068;5.826;2023-05-16T11:04:58;6.07;;;1.80;;
67751;SDS011;54551;51.068;5.826;2023-05-16T11:07:25;4.63;;;1.47;;
67751;SDS011;54551;51.068;5.826;2023-05-16T11:12:41;4.10;;;1.57;;
67751;SDS011;54551;51.068;5.826;2023-05-16T11:17:43;3.13;;;1.20;;
67751;SDS011;54551;51.068;5.826;2023-05-16T11:20:23;3.77;;;1.30;;
67751;SDS011;54551;51.068;5.826;2023-05-16T11:22:50;3.83;;;1.70;;
67751;SDS011;54551;51.068;5.826;2023-05-16T11:25:36;6.27;;;1.60;;
67751;SDS011;54551;51.068;5.826;2023-05-16T11:28:05;4.27;;;1.60;;
67751;SDS011;54551;51.068;5.826;2023-05-16T11:30:34;4.63;;;1.70;;
67751;SDS011;54551;51.068;5.826;2023-05-16T11:33:00;4.90;;;1.83;;
67751;SDS011;54551;51.068;5.826;2023-05-16T11:35:26;4.40;;;1.47;;
67751;SDS011;54551;51.068;5.826;2023-05-16T11:37:53;5.47;;;1.73;;
67751;SDS011;54551;51.068;5.826;2023-05-16T11:40:19;5.63;;;1.63;;
67751;SDS011;54551;51.068;5.826;2023-05-16T11:42:46;4.13;;;1.40;;
67751;SDS011;54551;51.068;5.826;2023-05-16T11:45:16;4.40;;;1.57;;
67751;SDS011;54551;51.068;5.826;2023-05-16T11:47:44;5.27;;;2.03;;
67751;SDS011;54551;51.068;5.826;2023-05-16T11:50:12;4.63;;;1.80;;
67751;SDS011;54551;51.068;5.826;2023-05-16T11:52:43;3.83;;;1.53;;
67751;SDS011;54551;51.068;5.826;2023-05-16T11:55:11;5.67;;;1.63;;
67751;SDS011;54551;51.068;5.826;2023-05-16T11:57:39;3.40;;;1.40;;
67751;SDS011;54551;51.068;5.826;2023-05-16T12:00:15;2.93;;;1.30;;
67751;SDS011;54551;51.068;5.826;2023-05-16T12:02:46;5.57;;;1.80;;
67751;SDS011;54551;51.068;5.826;2023-05-16T12:05:13;2.87;;;1.10;;
67751;SDS011;54551;51.068;5.826;2023-05-16T12:07:44;2.57;;;1.03;;
67751;SDS011;54551;51.068;5.826;2023-05-16T12:10:11;3.33;;;1.50;;
67751;SDS011;54551;51.068;5.826;2023-05-16T12:12:48;4.33;;;1.53;;
67751;SDS011;54551;51.068;5.826;2023-05-16T12:15:18;3.60;;;1.70;;
67751;SDS011;54551;51.068;5.826;2023-05-16T12:17:45;1.83;;;1.03;;
67751;SDS011;54551;51.068;5.826;2023-05-16T12:20:12;4.40;;;1.60;;
67751;SDS011;54551;51.068;5.826;2023-05-16T12:22:43;2.70;;;1.20;;
67751;SDS011;54551;51.068;5.826;2023-05-16T12:28:11;4.20;;;1.43;;
67751;SDS011;54551;51.068;5.826;2023-05-16T12:30:39;5.13;;;1.73;;
67751;SDS011;54551;51.068;5.826;2023-05-16T12:33:11;3.97;;;1.30;;
67751;SDS011;54551;51.068;5.826;2023-05-16T12:35:41;3.33;;;1.30;;
67751;SDS011;54551;51.068;5.826;2023-05-16T12:38:09;4.77;;;1.53;;
67751;SDS011;54551;51.068;5.826;2023-05-16T12:40:37;4.07;;;1.60;;
67751;SDS011;54551;51.068;5.826;2023-05-16T12:43:12;3.83;;;1.50;;
67751;SDS011;54551;51.068;5.826;2023-05-16T12:45:50;3.23;;;1.63;;
67751;SDS011;54551;51.068;5.826;2023-05-16T12:48:17;5.40;;;1.90;;
67751;SDS011;54551;51.068;5.826;2023-05-16T12:50:43;2.83;;;1.37;;
67751;SDS011;54551;51.068;5.826;2023-05-16T12:53:13;2.93;;;1.33;;
67751;SDS011;54551;51.068;5.826;2023-05-16T12:55:40;4.63;;;1.70;;
67751;SDS011;54551;51.068;5.826;2023-05-16T12:58:08;5.63;;;1.87;;
67751;SDS011;54551;51.068;5.826;2023-05-16T13:00:34;4.17;;;2.07;;
67751;SDS011;54551;51.068;5.826;2023-05-16T13:03:02;3.23;;;1.60;;
67751;SDS011;54551;51.068;5.826;2023-05-16T13:05:30;4.00;;;1.70;;
67751;SDS011;54551;51.068;5.826;2023-05-16T13:07:57;2.37;;;1.40;;
67751;SDS011;54551;51.068;5.826;2023-05-16T13:10:22;3.23;;;1.43;;
67751;SDS011;54551;51.068;5.826;2023-05-16T13:12:50;3.50;;;1.43;;
67751;SDS011;54551;51.068;5.826;2023-05-16T13:15:16;3.83;;;1.67;;
67751;SDS011;54551;51.068;5.826;2023-05-16T13:17:42;8.00;;;1.73;;
67751;SDS011;54551;51.068;5.826;2023-05-16T13:20:12;2.67;;;1.57;;
67751;SDS011;54551;51.068;5.826;2023-05-16T13:22:42;3.00;;;1.60;;
67751;SDS011;54551;51.068;5.826;2023-05-16T13:25:09;5.13;;;1.93;;
67751;SDS011;54551;51.068;5.826;2023-05-16T13:27:35;2.53;;;1.47;;
67751;SDS011;54551;51.068;5.826;2023-05-16T13:30:01;4.17;;;1.90;;
67751;SDS011;54551;51.068;5.826;2023-05-16T13:32:33;2.97;;;1.40;;
67751;SDS011;54551;51.068;5.826;2023-05-16T13:34:59;6.30;;;1.80;;
67751;SDS011;54551;51.068;5.826;2023-05-16T13:37:24;3.60;;;1.73;;
67751;SDS011;54551;51.068;5.826;2023-05-16T13:39:50;4.07;;;1.80;;
67751;SDS011;54551;51.068;5.826;2023-05-16T13:42:18;4.67;;;1.97;;
67751;SDS011;54551;51.068;5.826;2023-05-16T13:44:45;6.07;;;1.90;;
67751;SDS011;54551;51.068;5.826;2023-05-16T13:47:11;5.60;;;1.93;;
67751;SDS011;54551;51.068;5.826;2023-05-16T13:49:37;3.87;;;1.90;;
67751;SDS011;54551;51.068;5.826;2023-05-16T13:52:03;2.87;;;1.67;;
67751;SDS011;54551;51.068;5.826;2023-05-16T13:54:29;4.03;;;2.03;;
67751;SDS011;54551;51.068;5.826;2023-05-16T13:56:55;5.63;;;2.10;;
67751;SDS011;54551;51.068;5.826;2023-05-16T13:59:22;4.00;;;1.70;;
67751;SDS011;54551;51.068;5.826;2023-05-16T14:01:47;6.13;;;2.00;;
67751;SDS011;54551;51.068;5.826;2023-05-16T14:04:14;6.57;;;2.00;;
67751;SDS011;54551;51.068;5.826;2023-05-16T14:06:40;3.83;;;1.90;;
67751;SDS011;54551;51.068;5.826;2023-05-16T14:09:05;3.70;;;1.30;;
67751;SDS011;54551;51.068;5.826;2023-05-16T14:11:32;5.47;;;2.03;;
67751;SDS011;54551;51.068;5.826;2023-05-16T14:13:58;4.30;;;2.00;;
67751;SDS011;54551;51.068;5.826;2023-05-16T14:16:24;4.53;;;1.73;;
67751;SDS011;54551;51.068;5.826;2023-05-16T14:18:50;5.10;;;1.90;;
67751;SDS011;54551;51.068;5.826;2023-05-16T14:21:16;4.43;;;2.00;;
67751;SDS011;54551;51.068;5.826;2023-05-16T14:23:42;3.77;;;1.67;;
67751;SDS011;54551;51.068;5.826;2023-05-16T14:26:08;2.47;;;1.60;;
67751;SDS011;54551;51.068;5.826;2023-05-16T14:28:33;4.17;;;2.27;;
67751;SDS011;54551;51.068;5.826;2023-05-16T14:31:00;4.27;;;2.10;;
67751;SDS011;54551;51.068;5.826;2023-05-16T14:33:26;5.83;;;2.10;;
67751;SDS011;54551;51.068;5.826;2023-05-16T14:35:52;4.03;;;1.50;;
67751;SDS011;54551;51.068;5.826;2023-05-16T14:38:18;6.80;;;1.97;;
67751;SDS011;54551;51.068;5.826;2023-05-16T14:40:45;6.03;;;1.70;;
67751;SDS011;54551;51.068;5.826;2023-05-16T14:43:11;4.67;;;1.90;;
67751;SDS011;54551;51.068;5.826;2023-05-16T14:45:37;4.10;;;1.77;;
67751;SDS011;54551;51.068;5.826;2023-05-16T14:48:04;8.23;;;2.27;;
67751;SDS011;54551;51.068;5.826;2023-05-16T14:50:31;3.83;;;1.73;;
67751;SDS011;54551;51.068;5.826;2023-05-16T14:52:56;4.17;;;1.67;;
67751;SDS011;54551;51.068;5.826;2023-05-16T14:55:22;4.03;;;1.97;;
67751;SDS011;54551;51.068;5.826;2023-05-16T14:57:48;4.87;;;2.07;;
67751;SDS011;54551;51.068;5.826;2023-05-16T15:00:14;3.13;;;1.63;;
67751;SDS011;54551;51.068;5.826;2023-05-16T15:02:44;4.33;;;1.90;;
67751;SDS011;54551;51.068;5.826;2023-05-16T15:05:10;4.23;;;1.87;;